createdAt,value
2019-02-08T00:00:54.228Z,-0.13
2019-02-08T00:03:21.601Z,-0.09
2019-02-08T00:05:48.976Z,-0.14
2019-02-08T00:08:16.595Z,-0.08
2019-02-08T00:10:44.080Z,-0.08
2019-02-08T00:13:11.649Z,-0.11
2019-02-08T00:15:39.164Z,0.01
2019-02-08T00:18:06.671Z,0.07
2019-02-08T00:20:34.049Z,-0.08
2019-02-08T00:23:01.436Z,-0.05
2019-02-08T00:25:28.920Z,-0.20
2019-02-08T00:27:56.922Z,-0.20
2019-02-08T00:30:24.608Z,-0.23
2019-02-08T00:32:52.167Z,-0.22
2019-02-08T00:35:19.774Z,-0.21
2019-02-08T00:37:47.142Z,-0.21
2019-02-08T00:40:14.775Z,-0.19
2019-02-08T00:42:42.280Z,-0.19
2019-02-08T00:45:11.492Z,-0.23
2019-02-08T00:47:38.944Z,-0.21
2019-02-08T00:50:09.381Z,-0.23
2019-02-08T00:52:36.762Z,-0.18
2019-02-08T00:55:05.055Z,-0.21
2019-02-08T00:57:32.459Z,-0.17
2019-02-08T01:00:00.024Z,-0.23
2019-02-08T01:02:27.562Z,-0.18
2019-02-08T01:04:55.102Z,-0.21
2019-02-08T01:07:22.488Z,-0.15
2019-02-08T01:09:49.901Z,-0.19
2019-02-08T01:12:17.341Z,-0.23
2019-02-08T01:14:45.121Z,-0.27
2019-02-08T01:17:12.562Z,-0.26
2019-02-08T01:19:39.982Z,-0.25
2019-02-08T01:22:07.400Z,-0.26
2019-02-08T01:24:34.931Z,-0.23
2019-02-08T01:27:02.342Z,-0.25
2019-02-08T01:29:29.723Z,-0.22
2019-02-08T01:31:57.154Z,-0.17
2019-02-08T01:34:24.700Z,-0.23
2019-02-08T01:36:52.100Z,-0.10
2019-02-08T01:39:19.490Z,-0.06
2019-02-08T01:41:47.061Z,-0.06
2019-02-08T01:44:14.442Z,-0.03
2019-02-08T01:46:41.864Z,-0.06
2019-02-08T01:49:09.241Z,-0.17
2019-02-08T01:51:36.615Z,-0.07
2019-02-08T01:54:04.160Z,-0.12
2019-02-08T01:56:31.582Z,-0.02
2019-02-08T01:58:58.943Z,0.02
2019-02-08T02:01:26.472Z,-0.10
2019-02-08T02:03:53.863Z,-0.17
2019-02-08T02:06:21.322Z,-0.16
2019-02-08T02:08:48.720Z,-0.19
2019-02-08T02:11:16.121Z,-0.08
2019-02-08T02:13:43.566Z,-0.07
2019-02-08T02:16:10.924Z,0.13
2019-02-08T02:18:38.360Z,0.07
2019-02-08T02:21:05.768Z,-0.14
2019-02-08T02:23:33.152Z,-0.01
2019-02-08T02:26:00.556Z,-0.10
2019-02-08T02:28:27.939Z,-0.13
2019-02-08T02:30:55.404Z,-0.16
2019-02-08T02:33:22.781Z,-0.12
2019-02-08T02:35:50.223Z,-0.04
2019-02-08T02:38:18.563Z,0.34
2019-02-08T02:40:45.939Z,0.42
2019-02-08T02:43:13.400Z,0.47
2019-02-08T02:45:40.914Z,-0.01
2019-02-08T02:48:10.801Z,0.23
2019-02-08T02:50:38.323Z,0.30
2019-02-08T02:53:05.842Z,0.77
2019-02-08T02:55:33.340Z,0.58
2019-02-08T02:58:00.730Z,0.66
2019-02-08T03:00:34.095Z,0.76
2019-02-08T03:03:01.744Z,0.69
2019-02-08T03:05:29.222Z,0.67
2019-02-08T03:07:56.628Z,0.72
2019-02-08T03:10:24.410Z,0.73
2019-02-08T03:12:51.845Z,0.75
2019-02-08T03:15:19.531Z,0.80
2019-02-08T03:17:48.064Z,0.89
2019-02-08T03:20:16.761Z,0.96
2019-02-08T03:22:44.290Z,0.88
2019-02-08T03:25:17.621Z,0.77
2019-02-08T03:27:45.266Z,0.66
2019-02-08T03:30:15.765Z,0.90
2019-02-08T03:32:43.147Z,0.86
2019-02-08T03:35:13.757Z,0.62
2019-02-08T03:37:41.184Z,0.65
2019-02-08T03:40:11.814Z,0.71
2019-02-08T03:42:39.208Z,0.96
2019-02-08T03:45:08.047Z,0.87
2019-02-08T03:47:36.306Z,0.91
2019-02-08T03:50:04.962Z,0.49
2019-02-08T03:52:32.337Z,0.19
2019-02-08T03:54:59.762Z,0.18
2019-02-08T03:57:27.183Z,0.32
2019-02-08T03:59:54.580Z,0.67
2019-02-08T04:02:22.101Z,0.23
2019-02-08T04:04:49.710Z,0.07
2019-02-08T04:07:17.115Z,0.11
2019-02-08T04:09:44.502Z,0.48
2019-02-08T04:12:11.920Z,0.82
2019-02-08T04:14:39.327Z,0.20
2019-02-08T04:17:06.763Z,0.14
2019-02-08T04:19:34.142Z,0.09
2019-02-08T04:22:01.534Z,0.07
2019-02-08T04:24:30.172Z,0.01
2019-02-08T04:26:57.689Z,0.02
2019-02-08T04:29:25.103Z,0.01
2019-02-08T04:31:52.541Z,0.01
2019-02-08T04:34:19.918Z,0.04
2019-02-08T04:36:47.404Z,0.07
2019-02-08T04:39:14.842Z,-0.02
2019-02-08T04:41:42.243Z,0.02
2019-02-08T04:44:09.687Z,-0.01
2019-02-08T04:46:37.081Z,-0.01
2019-02-08T04:49:04.493Z,-0.01
2019-02-08T04:51:31.921Z,-0.03
2019-02-08T04:53:59.476Z,0.02
2019-02-08T04:56:27.022Z,-0.15
2019-02-08T04:58:54.463Z,-0.15
2019-02-08T05:01:21.863Z,-0.11
2019-02-08T05:03:49.249Z,-0.10
2019-02-08T05:06:16.683Z,-0.19
2019-02-08T05:08:44.082Z,-0.13
2019-02-08T05:11:11.499Z,-0.20
2019-02-08T05:13:38.884Z,-0.25
2019-02-08T05:16:06.421Z,-0.27
2019-02-08T05:18:33.807Z,-0.29
2019-02-08T05:21:01.226Z,-0.30
2019-02-08T05:23:28.677Z,-0.33
2019-02-08T05:25:56.072Z,-0.30
2019-02-08T05:28:23.458Z,-0.28
2019-02-08T05:30:50.884Z,-0.39
2019-02-08T05:33:18.267Z,-0.44
2019-02-08T05:35:46.056Z,-0.48
2019-02-08T05:38:13.431Z,-0.44
2019-02-08T05:40:40.841Z,-0.48
2019-02-08T05:43:08.278Z,-0.49
2019-02-08T05:45:35.751Z,-0.55
2019-02-08T05:48:03.625Z,-0.42
2019-02-08T05:50:31.040Z,-0.37
2019-02-08T05:52:58.461Z,-0.35
2019-02-08T05:55:27.982Z,-0.35
2019-02-08T05:57:55.526Z,-0.33
2019-02-08T06:00:29.610Z,-0.34
2019-02-08T06:02:57.068Z,-0.30
2019-02-08T06:05:24.642Z,-0.26
2019-02-08T06:07:52.053Z,-0.19
2019-02-08T06:10:19.595Z,-0.23
2019-02-08T06:12:47.026Z,-0.31
2019-02-08T06:15:16.789Z,-0.36
2019-02-08T06:17:44.193Z,-0.29
2019-02-08T06:20:13.527Z,-0.20
2019-02-08T06:22:40.922Z,-0.23
2019-02-08T06:25:08.760Z,-0.24
2019-02-08T06:27:36.313Z,-0.20
2019-02-08T06:30:05.094Z,-0.23
2019-02-08T06:32:32.481Z,-0.21
2019-02-08T06:34:59.885Z,-0.15
2019-02-08T06:37:27.347Z,-0.15
2019-02-08T06:39:54.791Z,-0.12
2019-02-08T06:42:22.184Z,-0.13
2019-02-08T06:44:49.611Z,-0.12
2019-02-08T06:47:16.980Z,-0.09
2019-02-08T06:49:44.353Z,0.00
2019-02-08T06:52:11.823Z,0.10
2019-02-08T06:54:39.200Z,0.00
2019-02-08T06:57:26.180Z,-0.03
2019-02-08T07:00:18.979Z,-0.06
2019-02-08T07:03:00.003Z,0.00
2019-02-08T07:05:45.584Z,-0.01
2019-02-08T07:08:41.512Z,-0.04
2019-02-08T07:11:40.593Z,0.02
2019-02-08T07:14:30.468Z,0.01
2019-02-08T07:17:23.423Z,0.08
2019-02-08T07:20:16.482Z,0.12
2019-02-08T07:22:58.613Z,0.15
2019-02-08T07:25:57.614Z,0.12
2019-02-08T07:28:44.531Z,0.19
2019-02-08T07:31:29.820Z,0.26
2019-02-08T07:34:15.359Z,0.22
2019-02-08T07:37:08.309Z,0.20
2019-02-08T07:39:49.522Z,0.17
2019-02-08T07:42:49.460Z,0.23
2019-02-08T07:45:22.960Z,0.22
2019-02-08T07:48:12.747Z,0.19
2019-02-08T07:50:45.301Z,0.17
2019-02-08T07:53:30.144Z,0.20
2019-02-08T07:56:23.077Z,0.29
2019-02-08T07:58:57.985Z,0.32
2019-02-08T08:01:47.405Z,0.26
2019-02-08T08:04:32.550Z,0.29
2019-02-08T08:07:05.999Z,0.38
2019-02-08T08:09:52.057Z,0.45
2019-02-08T08:12:37.677Z,0.49
2019-02-08T08:15:16.614Z,0.59
2019-02-08T08:18:18.809Z,0.47
2019-02-08T08:21:04.465Z,0.48
2019-02-08T08:23:50.651Z,0.55
2019-02-08T08:26:44.489Z,0.63
2019-02-08T08:29:27.004Z,0.53
2019-02-08T08:32:12.823Z,0.45
2019-02-08T08:35:08.674Z,0.51
2019-02-08T08:38:28.548Z,0.61
2019-02-08T08:41:26.558Z,0.63
2019-02-08T08:44:56.963Z,0.67
2019-02-08T08:47:47.584Z,0.88
2019-02-08T08:51:06.187Z,0.92
2019-02-08T08:54:16.791Z,0.87
2019-02-08T08:57:31.741Z,1.09
2019-02-08T09:00:49.656Z,1.17
2019-02-08T09:04:13.782Z,1.09
2019-02-08T09:07:16.592Z,1.02
2019-02-08T09:10:24.648Z,1.12
2019-02-08T09:13:23.027Z,1.07
2019-02-08T09:16:40.063Z,0.97
2019-02-08T09:20:01.402Z,1.02
2019-02-08T09:22:59.662Z,1.10
2019-02-08T09:26:01.643Z,0.98
2019-02-08T09:28:53.781Z,1.01
2019-02-08T09:31:46.023Z,1.19
2019-02-08T09:34:50.042Z,1.08
2019-02-08T09:38:03.935Z,1.31
2019-02-08T09:41:03.685Z,1.53
2019-02-08T09:44:16.142Z,1.43
2019-02-08T09:47:21.306Z,1.33
2019-02-08T09:50:26.622Z,1.40
2019-02-08T09:53:43.403Z,1.49
2019-02-08T09:57:05.009Z,1.64
2019-02-08T10:00:11.424Z,1.61
2019-02-08T10:03:08.765Z,1.71
2019-02-08T10:06:14.509Z,1.80
2019-02-08T10:09:18.167Z,1.85
2019-02-08T10:12:26.163Z,1.78
2019-02-08T10:15:31.282Z,1.68
2019-02-08T10:18:42.009Z,1.68
2019-02-08T10:21:59.824Z,1.66
2019-02-08T10:25:04.069Z,1.69
2019-02-08T10:28:31.620Z,1.71
2019-02-08T10:31:58.766Z,1.49
2019-02-08T10:35:25.808Z,1.58
2019-02-08T10:38:27.445Z,1.55
2019-02-08T10:41:30.683Z,1.62
2019-02-08T10:44:34.354Z,1.60
2019-02-08T10:47:32.625Z,1.58
2019-02-08T10:50:43.681Z,1.53
2019-02-08T10:53:40.426Z,1.50
2019-02-08T10:56:44.282Z,1.45
2019-02-08T10:59:53.581Z,1.56
2019-02-08T11:03:14.573Z,1.54
2019-02-08T11:06:09.364Z,1.59
2019-02-08T11:09:13.417Z,1.58
2019-02-08T11:12:05.861Z,1.69
2019-02-08T11:15:20.392Z,1.66
2019-02-08T11:18:36.498Z,1.80
2019-02-08T11:21:04.059Z,1.70
2019-02-08T11:23:31.443Z,1.81
2019-02-08T11:25:58.942Z,1.75
2019-02-08T11:28:26.390Z,1.76
2019-02-08T11:30:54.160Z,1.85
2019-02-08T11:33:21.654Z,1.90
2019-02-08T11:35:49.042Z,1.82
2019-02-08T11:38:16.395Z,1.94
2019-02-08T11:40:43.976Z,1.95
2019-02-08T11:43:11.702Z,1.94
2019-02-08T11:45:39.177Z,1.92
2019-02-08T11:48:06.664Z,2.29
2019-02-08T11:50:34.065Z,2.00
2019-02-08T11:53:01.574Z,2.09
2019-02-08T11:55:28.988Z,2.01
2019-02-08T11:57:56.417Z,2.16
2019-02-08T12:00:32.833Z,1.92
2019-02-08T12:03:00.301Z,2.09
2019-02-08T12:05:27.721Z,1.79
2019-02-08T12:07:55.166Z,1.89
2019-02-08T12:10:22.529Z,1.87
2019-02-08T12:12:49.908Z,1.97
2019-02-08T12:15:17.631Z,1.97
2019-02-08T12:17:45.022Z,2.12
2019-02-08T12:20:12.830Z,2.19
2019-02-08T12:22:40.242Z,2.19
2019-02-08T12:25:08.120Z,1.73
2019-02-08T12:27:35.622Z,2.17
2019-02-08T12:30:05.534Z,2.28
2019-02-08T12:32:32.980Z,2.04
2019-02-08T12:35:00.387Z,2.53
2019-02-08T12:37:27.825Z,2.59
2019-02-08T12:39:55.239Z,2.67
2019-02-08T12:42:22.662Z,2.69
2019-02-08T12:44:50.102Z,2.86
2019-02-08T12:47:17.484Z,3.05
2019-02-08T12:49:44.838Z,3.13
2019-02-08T12:52:12.428Z,3.26
2019-02-08T12:54:39.783Z,3.10
2019-02-08T12:57:07.233Z,3.33
2019-02-08T12:59:34.705Z,3.32
2019-02-08T13:02:02.100Z,3.06
2019-02-08T13:04:29.536Z,3.17
2019-02-08T13:06:56.941Z,3.24
2019-02-08T13:09:24.382Z,3.38
2019-02-08T13:11:51.775Z,3.60
2019-02-08T13:14:19.166Z,4.01
2019-02-08T13:16:46.585Z,3.46
2019-02-08T13:19:13.976Z,3.53
2019-02-08T13:21:41.541Z,3.78
2019-02-08T13:24:09.113Z,4.01
2019-02-08T13:26:36.561Z,4.50
2019-02-08T13:29:04.300Z,4.59
2019-02-08T13:31:31.713Z,4.68
2019-02-08T13:33:59.206Z,4.73
2019-02-08T13:36:26.792Z,4.16
2019-02-08T13:38:54.206Z,4.43
2019-02-08T13:41:21.635Z,4.50
2019-02-08T13:43:49.043Z,4.74
2019-02-08T13:46:16.493Z,4.53
2019-02-08T13:48:43.923Z,4.51
2019-02-08T13:51:11.402Z,4.59
2019-02-08T13:53:38.824Z,4.05
2019-02-08T13:56:06.256Z,4.42
2019-02-08T13:58:33.695Z,4.24
2019-02-08T14:01:01.123Z,3.89
2019-02-08T14:03:28.879Z,4.20
2019-02-08T14:05:56.313Z,4.06
2019-02-08T14:08:23.983Z,4.32
2019-02-08T14:10:51.405Z,4.53
2019-02-08T14:13:18.850Z,4.33
2019-02-08T14:15:46.479Z,3.77
2019-02-08T14:18:13.954Z,4.50
2019-02-08T14:20:41.484Z,4.36
2019-02-08T14:23:08.902Z,3.92
2019-02-08T14:25:36.435Z,3.83
2019-02-08T14:28:03.949Z,3.63
2019-02-08T14:30:33.476Z,3.53
2019-02-08T14:33:00.974Z,3.49
2019-02-08T14:35:28.653Z,3.61
2019-02-08T14:37:56.382Z,3.29
2019-02-08T14:40:24.064Z,3.43
2019-02-08T14:42:51.661Z,3.61
2019-02-08T14:45:19.343Z,3.67
2019-02-08T14:47:46.764Z,3.57
2019-02-08T14:50:17.134Z,3.58
2019-02-08T14:52:46.248Z,3.35
2019-02-08T14:55:14.543Z,3.29
2019-02-08T14:57:42.049Z,3.53
2019-02-08T15:00:12.711Z,3.75
2019-02-08T15:02:40.186Z,3.68
2019-02-08T15:05:08.952Z,3.43
2019-02-08T15:07:36.632Z,3.28
2019-02-08T15:10:07.098Z,3.36
2019-02-08T15:12:34.494Z,3.24
2019-02-08T15:15:02.502Z,3.01
2019-02-08T15:17:29.903Z,2.91
2019-02-08T15:19:57.974Z,2.88
2019-02-08T15:22:25.571Z,2.60
2019-02-08T15:24:53.083Z,2.21
2019-02-08T15:27:24.376Z,2.36
2019-02-08T15:29:50.489Z,2.37
2019-02-08T15:32:17.923Z,2.50
2019-02-08T15:34:45.430Z,2.43
2019-02-08T15:37:13.016Z,2.49
2019-02-08T15:39:41.503Z,2.14
2019-02-08T15:42:09.029Z,2.05
2019-02-08T15:44:36.724Z,2.08
2019-02-08T15:47:04.371Z,2.05
2019-02-08T15:49:34.923Z,1.72
2019-02-08T15:52:02.686Z,1.80
2019-02-08T15:54:30.599Z,1.85
2019-02-08T15:56:58.558Z,1.83
2019-02-08T15:59:26.354Z,1.53
2019-02-08T16:01:53.930Z,1.43
2019-02-08T16:04:21.527Z,1.42
2019-02-08T16:06:49.823Z,1.51
2019-02-08T16:09:17.743Z,1.33
2019-02-08T16:11:45.621Z,1.31
2019-02-08T16:14:13.532Z,1.34
2019-02-08T16:16:41.450Z,1.10
2019-02-08T16:19:10.095Z,0.94
2019-02-08T16:21:37.999Z,0.99
2019-02-08T16:24:06.051Z,0.90
2019-02-08T16:26:33.850Z,1.06
2019-02-08T16:29:01.711Z,1.12
2019-02-08T16:31:29.512Z,0.80
2019-02-08T16:33:57.460Z,0.69
2019-02-08T16:36:25.381Z,0.72
2019-02-08T16:38:53.104Z,0.83
2019-02-08T16:41:20.915Z,0.64
2019-02-08T16:43:48.863Z,0.73
2019-02-08T16:46:16.891Z,0.84
2019-02-08T16:48:44.783Z,0.76
2019-02-08T16:51:12.824Z,0.80
2019-02-08T16:53:40.944Z,0.59
2019-02-08T16:56:08.987Z,0.63
2019-02-08T16:58:36.953Z,0.56
2019-02-08T17:01:05.516Z,0.36
2019-02-08T17:03:33.481Z,0.37
2019-02-08T17:06:01.543Z,0.22
2019-02-08T17:08:29.393Z,0.26
2019-02-08T17:10:59.082Z,0.30
2019-02-08T17:13:27.062Z,0.20
2019-02-08T17:15:55.547Z,0.21
2019-02-08T17:18:23.537Z,0.15
2019-02-08T17:20:51.882Z,0.23
2019-02-08T17:23:19.734Z,0.23
2019-02-08T17:25:47.641Z,0.12
2019-02-08T17:28:15.485Z,0.13
2019-02-08T17:30:43.500Z,0.19
2019-02-08T17:33:11.731Z,0.19
2019-02-08T17:35:39.682Z,0.18
2019-02-08T17:38:07.627Z,0.03
2019-02-08T17:40:37.209Z,-0.07
2019-02-08T17:43:05.844Z,-0.01
2019-02-08T17:45:33.853Z,-0.04
2019-02-08T17:48:03.503Z,-0.05
2019-02-08T17:50:31.456Z,-0.03
2019-02-08T17:52:59.461Z,-0.07
2019-02-08T17:55:27.637Z,-0.14
2019-02-08T17:58:02.955Z,-0.14
2019-02-08T18:00:38.639Z,-0.09
2019-02-08T18:03:06.621Z,-0.08
2019-02-08T18:05:34.531Z,-0.20
2019-02-08T18:08:02.538Z,-0.18
2019-02-08T18:10:30.567Z,-0.22
2019-02-08T18:12:58.512Z,-0.11
2019-02-08T18:15:26.983Z,-0.12
2019-02-08T18:17:54.929Z,-0.13
2019-02-08T18:20:25.943Z,-0.18
2019-02-08T18:22:53.894Z,-0.15
2019-02-08T18:25:21.921Z,-0.19
2019-02-08T18:27:50.015Z,-0.19
2019-02-08T18:30:19.280Z,-0.14
2019-02-08T18:32:47.283Z,-0.19
2019-02-08T18:35:16.339Z,-0.16
2019-02-08T18:37:44.739Z,-0.29
2019-02-08T18:40:14.765Z,-0.34
2019-02-08T18:42:43.289Z,-0.29
2019-02-08T18:45:14.502Z,-0.36
2019-02-08T18:47:42.530Z,-0.46
2019-02-08T18:50:15.401Z,-0.49
2019-02-08T18:52:43.401Z,-0.50
2019-02-08T18:55:11.184Z,-0.47
2019-02-08T18:57:39.271Z,-0.34
2019-02-08T19:00:11.780Z,-0.39
2019-02-08T19:02:39.762Z,-0.33
2019-02-08T19:05:08.623Z,-0.40
2019-02-08T19:07:36.656Z,-0.51
2019-02-08T19:10:05.762Z,-0.38
2019-02-08T19:12:33.901Z,-0.36
2019-02-08T19:15:05.041Z,-0.43
2019-02-08T19:17:33.161Z,-0.44
2019-02-08T19:20:01.475Z,-0.41
2019-02-08T19:22:29.598Z,-0.58
2019-02-08T19:24:57.601Z,-0.65
2019-02-08T19:27:25.695Z,-0.52
2019-02-08T19:29:54.321Z,-0.53
2019-02-08T19:32:22.264Z,-0.50
2019-02-08T19:34:50.253Z,-0.52
2019-02-08T19:37:18.282Z,-0.64
2019-02-08T19:39:46.336Z,-0.56
2019-02-08T19:42:14.325Z,-0.51
2019-02-08T19:44:42.339Z,-0.54
2019-02-08T19:47:10.268Z,-0.57
2019-02-08T19:49:38.728Z,-0.62
2019-02-08T19:52:06.734Z,-0.58
2019-02-08T19:54:34.719Z,-0.58
2019-02-08T19:57:06.175Z,-0.61
2019-02-08T19:59:34.223Z,-0.64
2019-02-08T20:02:02.350Z,-0.62
2019-02-08T20:04:30.313Z,-0.51
2019-02-08T20:06:58.292Z,-0.64
2019-02-08T20:09:26.382Z,-0.66
2019-02-08T20:11:54.484Z,-0.64
2019-02-08T20:14:22.453Z,-0.65
2019-02-08T20:16:50.420Z,-0.73
2019-02-08T20:19:18.581Z,-0.64
2019-02-08T20:21:46.543Z,-0.63
2019-02-08T20:24:14.522Z,-0.63
2019-02-08T20:26:42.480Z,-0.63
2019-02-08T20:29:10.501Z,-0.69
2019-02-08T20:31:38.552Z,-0.71
2019-02-08T20:34:06.860Z,-0.58
2019-02-08T20:36:34.861Z,-0.38
2019-02-08T20:39:04.747Z,-0.59
2019-02-08T20:41:32.778Z,-0.49
2019-02-08T20:44:00.757Z,-0.55
2019-02-08T20:46:28.957Z,-0.63
2019-02-08T20:48:57.163Z,-0.51
2019-02-08T20:51:25.184Z,-0.51
2019-02-08T20:53:53.223Z,-0.61
2019-02-08T20:56:21.504Z,-0.63
2019-02-08T20:58:50.566Z,-0.64
2019-02-08T21:01:18.620Z,-0.73
2019-02-08T21:04:10.911Z,-0.65
2019-02-08T21:06:39.020Z,-0.67
2019-02-08T21:09:12.174Z,-0.78
2019-02-08T21:11:42.737Z,-0.46
2019-02-08T21:14:13.851Z,-0.63
2019-02-08T21:16:51.144Z,-0.63
2019-02-08T21:19:19.089Z,-0.74
2019-02-08T21:21:47.123Z,-0.81
2019-02-08T21:24:15.083Z,-0.81
2019-02-08T21:26:42.919Z,-0.92
2019-02-08T21:29:12.344Z,-0.92
2019-02-08T21:31:40.392Z,-0.85
2019-02-08T21:34:08.964Z,-1.05
2019-02-08T21:36:38.949Z,-0.87
2019-02-08T21:39:07.934Z,-0.87
2019-02-08T21:41:35.768Z,-0.92
2019-02-08T21:44:03.872Z,-0.94
2019-02-08T21:46:31.823Z,-0.96
2019-02-08T21:49:00.623Z,-0.85
2019-02-08T21:51:28.441Z,-0.96
2019-02-08T21:53:56.272Z,-0.93
2019-02-08T21:56:24.282Z,-0.97
2019-02-08T21:58:52.167Z,-0.87
2019-02-08T22:01:19.930Z,-0.91
2019-02-08T22:03:47.846Z,-0.91
2019-02-08T22:06:15.525Z,-0.95
2019-02-08T22:08:43.381Z,-1.00
2019-02-08T22:11:11.321Z,-1.09
2019-02-08T22:13:39.183Z,-1.08
2019-02-08T22:16:06.922Z,-0.98
2019-02-08T22:18:34.705Z,-1.02
2019-02-08T22:21:02.452Z,-1.02
2019-02-08T22:23:30.161Z,-1.12
2019-02-08T22:25:57.811Z,-1.19
2019-02-08T22:28:25.282Z,-1.13
2019-02-08T22:30:52.731Z,-1.17
2019-02-08T22:33:21.209Z,-1.17
2019-02-08T22:35:48.803Z,-1.01
2019-02-08T22:38:16.280Z,-1.16
2019-02-08T22:40:43.725Z,-0.96
2019-02-08T22:43:11.242Z,-1.05
2019-02-08T22:45:41.915Z,-1.06
2019-02-08T22:48:09.483Z,-1.11
2019-02-08T22:50:37.029Z,-1.03
2019-02-08T22:53:06.317Z,-1.03
2019-02-08T22:55:33.881Z,-1.07
2019-02-08T22:58:01.341Z,-1.04
2019-02-08T23:01:24.209Z,-1.04
2019-02-08T23:03:53.808Z,-0.97
2019-02-08T23:06:21.321Z,-1.00
2019-02-08T23:08:48.742Z,-1.00
2019-02-08T23:11:16.300Z,-1.01
2019-02-08T23:13:43.930Z,-1.00
2019-02-08T23:16:11.480Z,-0.94
2019-02-08T23:18:38.863Z,-0.96
2019-02-08T23:21:06.411Z,-0.96
2019-02-08T23:23:33.800Z,-0.96
2019-02-08T23:26:01.231Z,-0.88
2019-02-08T23:28:28.645Z,-0.87
2019-02-08T23:30:56.026Z,-0.94
2019-02-08T23:33:23.486Z,-0.94
2019-02-08T23:35:50.923Z,-0.88
2019-02-08T23:38:18.472Z,-0.92
2019-02-08T23:40:45.901Z,-0.97
2019-02-08T23:43:13.363Z,-0.94
2019-02-08T23:45:40.750Z,-0.96
2019-02-08T23:48:08.241Z,-0.97
2019-02-08T23:50:35.687Z,-0.91
2019-02-08T23:53:03.550Z,-0.98
2019-02-08T23:55:31.023Z,-0.90
2019-02-08T23:57:58.432Z,-0.72
